sensor_id;sensor_type;location;lat;lon;timestamp;temperature;humidity
13998;DHT22;7074;51.508;7.018;2023-11-21T00:01:39;10.40;99.90
13998;DHT22;7074;51.508;7.018;2023-11-21T00:04:06;10.50;99.90
13998;DHT22;7074;51.508;7.018;2023-11-21T00:06:34;10.50;99.90
13998;DHT22;7074;51.508;7.018;2023-11-21T00:09:01;10.40;99.90
13998;DHT22;7074;51.508;7.018;2023-11-21T00:11:28;10.50;99.90
13998;DHT22;7074;51.508;7.018;2023-11-21T00:13:56;10.40;99.90
13998;DHT22;7074;51.508;7.018;2023-11-21T00:16:24;10.50;99.90
13998;DHT22;7074;51.508;7.018;2023-11-21T00:18:52;10.60;99.90
13998;DHT22;7074;51.508;7.018;2023-11-21T00:21:20;10.60;99.90
13998;DHT22;7074;51.508;7.018;2023-11-21T00:23:47;10.60;99.90
13998;DHT22;7074;51.508;7.018;2023-11-21T00:26:14;10.60;99.90
13998;DHT22;7074;51.508;7.018;2023-11-21T00:28:47;10.50;99.90
13998;DHT22;7074;51.508;7.018;2023-11-21T00:31:14;10.60;99.90
13998;DHT22;7074;51.508;7.018;2023-11-21T00:33:41;10.60;99.90
13998;DHT22;7074;51.508;7.018;2023-11-21T00:36:10;10.70;99.90
13998;DHT22;7074;51.508;7.018;2023-11-21T00:38:37;10.70;99.90
13998;DHT22;7074;51.508;7.018;2023-11-21T00:41:06;10.80;99.90
13998;DHT22;7074;51.508;7.018;2023-11-21T00:43:33;10.80;99.90
13998;DHT22;7074;51.508;7.018;2023-11-21T00:46:04;10.70;99.90
13998;DHT22;7074;51.508;7.018;2023-11-21T00:48:33;10.70;99.90
13998;DHT22;7074;51.508;7.018;2023-11-21T00:51:00;10.70;99.90
13998;DHT22;7074;51.508;7.018;2023-11-21T00:53:28;10.70;99.90
13998;DHT22;7074;51.508;7.018;2023-11-21T00:55:56;10.80;99.90
13998;DHT22;7074;51.508;7.018;2023-11-21T00:58:23;10.80;99.90
13998;DHT22;7074;51.508;7.018;2023-11-21T01:00:51;10.80;99.90
13998;DHT22;7074;51.508;7.018;2023-11-21T01:03:19;10.80;99.90
13998;DHT22;7074;51.508;7.018;2023-11-21T01:05:46;10.80;99.90
13998;DHT22;7074;51.508;7.018;2023-11-21T01:08:15;10.80;99.90
13998;DHT22;7074;51.508;7.018;2023-11-21T01:10:44;10.80;99.90
13998;DHT22;7074;51.508;7.018;2023-11-21T01:13:11;10.80;99.90
13998;DHT22;7074;51.508;7.018;2023-11-21T01:15:41;10.90;99.90
13998;DHT22;7074;51.508;7.018;2023-11-21T01:18:08;10.80;99.90
13998;DHT22;7074;51.508;7.018;2023-11-21T01:20:36;10.90;99.90
13998;DHT22;7074;51.508;7.018;2023-11-21T01:23:03;10.80;99.90
13998;DHT22;7074;51.508;7.018;2023-11-21T01:25:30;10.80;99.90
13998;DHT22;7074;51.508;7.018;2023-11-21T01:27:59;10.90;99.90
13998;DHT22;7074;51.508;7.018;2023-11-21T01:30:26;10.90;99.90
13998;DHT22;7074;51.508;7.018;2023-11-21T01:32:53;10.90;99.90
13998;DHT22;7074;51.508;7.018;2023-11-21T01:35:21;10.80;99.90
13998;DHT22;7074;51.508;7.018;2023-11-21T01:37:48;10.90;99.90
13998;DHT22;7074;51.508;7.018;2023-11-21T01:40:15;10.90;99.90
13998;DHT22;7074;51.508;7.018;2023-11-21T01:42:43;10.90;99.90
13998;DHT22;7074;51.508;7.018;2023-11-21T01:45:12;10.90;99.90
13998;DHT22;7074;51.508;7.018;2023-11-21T01:47:41;10.90;99.90
13998;DHT22;7074;51.508;7.018;2023-11-21T01:50:13;10.90;99.90
13998;DHT22;7074;51.508;7.018;2023-11-21T01:52:40;10.90;99.90
13998;DHT22;7074;51.508;7.018;2023-11-21T01:55:08;10.90;99.90
13998;DHT22;7074;51.508;7.018;2023-11-21T01:57:36;10.90;99.90
13998;DHT22;7074;51.508;7.018;2023-11-21T02:00:05;10.90;99.90
13998;DHT22;7074;51.508;7.018;2023-11-21T02:02:43;10.90;99.90
13998;DHT22;7074;51.508;7.018;2023-11-21T02:05:11;10.90;99.90
13998;DHT22;7074;51.508;7.018;2023-11-21T02:07:39;11.00;99.90
13998;DHT22;7074;51.508;7.018;2023-11-21T02:10:07;10.90;99.90
13998;DHT22;7074;51.508;7.018;2023-11-21T02:12:34;10.90;99.90
13998;DHT22;7074;51.508;7.018;2023-11-21T02:15:02;10.90;99.90
13998;DHT22;7074;51.508;7.018;2023-11-21T02:17:31;10.90;99.90
13998;DHT22;7074;51.508;7.018;2023-11-21T02:20:00;10.80;99.90
13998;DHT22;7074;51.508;7.018;2023-11-21T02:22:31;10.90;99.90
13998;DHT22;7074;51.508;7.018;2023-11-21T02:25:03;10.90;99.90
13998;DHT22;7074;51.508;7.018;2023-11-21T02:27:31;10.90;99.90
13998;DHT22;7074;51.508;7.018;2023-11-21T02:29:58;10.90;99.90
13998;DHT22;7074;51.508;7.018;2023-11-21T02:32:26;11.00;99.90
13998;DHT22;7074;51.508;7.018;2023-11-21T02:34:54;10.90;99.90
13998;DHT22;7074;51.508;7.018;2023-11-21T02:37:21;10.90;99.90
13998;DHT22;7074;51.508;7.018;2023-11-21T02:39:49;10.90;99.90
13998;DHT22;7074;51.508;7.018;2023-11-21T02:42:17;10.90;99.90
13998;DHT22;7074;51.508;7.018;2023-11-21T02:44:45;11.00;99.90
13998;DHT22;7074;51.508;7.018;2023-11-21T02:47:12;10.90;99.90
13998;DHT22;7074;51.508;7.018;2023-11-21T02:49:39;10.90;99.90
13998;DHT22;7074;51.508;7.018;2023-11-21T02:52:06;10.90;99.90
13998;DHT22;7074;51.508;7.018;2023-11-21T02:54:34;10.90;99.90
13998;DHT22;7074;51.508;7.018;2023-11-21T02:57:02;10.90;99.90
13998;DHT22;7074;51.508;7.018;2023-11-21T02:59:31;10.90;99.90
13998;DHT22;7074;51.508;7.018;2023-11-21T03:01:58;11.00;99.90
13998;DHT22;7074;51.508;7.018;2023-11-21T03:04:25;10.90;99.90
13998;DHT22;7074;51.508;7.018;2023-11-21T03:06:53;10.90;99.90
13998;DHT22;7074;51.508;7.018;2023-11-21T03:09:20;10.90;99.90
13998;DHT22;7074;51.508;7.018;2023-11-21T03:11:47;11.00;99.90
13998;DHT22;7074;51.508;7.018;2023-11-21T03:14:15;10.90;99.90
13998;DHT22;7074;51.508;7.018;2023-11-21T03:16:43;10.90;99.90
13998;DHT22;7074;51.508;7.018;2023-11-21T03:19:11;11.00;99.90
13998;DHT22;7074;51.508;7.018;2023-11-21T03:21:38;10.90;99.90
13998;DHT22;7074;51.508;7.018;2023-11-21T03:24:06;10.90;99.90
13998;DHT22;7074;51.508;7.018;2023-11-21T03:26:33;10.90;99.90
13998;DHT22;7074;51.508;7.018;2023-11-21T03:29:01;10.90;99.90
13998;DHT22;7074;51.508;7.018;2023-11-21T03:31:28;10.90;99.90
13998;DHT22;7074;51.508;7.018;2023-11-21T03:33:56;11.00;99.90
13998;DHT22;7074;51.508;7.018;2023-11-21T03:36:24;10.90;99.90
13998;DHT22;7074;51.508;7.018;2023-11-21T03:38:52;10.90;99.90
13998;DHT22;7074;51.508;7.018;2023-11-21T03:41:21;10.90;99.90
13998;DHT22;7074;51.508;7.018;2023-11-21T03:43:49;10.90;99.90
13998;DHT22;7074;51.508;7.018;2023-11-21T03:46:17;10.90;99.90
13998;DHT22;7074;51.508;7.018;2023-11-21T03:48:44;10.90;99.90
13998;DHT22;7074;51.508;7.018;2023-11-21T03:51:13;10.90;99.90
13998;DHT22;7074;51.508;7.018;2023-11-21T03:53:40;10.90;99.90
13998;DHT22;7074;51.508;7.018;2023-11-21T03:56:09;10.90;99.90
13998;DHT22;7074;51.508;7.018;2023-11-21T03:58:37;10.80;99.90
13998;DHT22;7074;51.508;7.018;2023-11-21T04:01:04;10.80;99.90
13998;DHT22;7074;51.508;7.018;2023-11-21T04:03:31;10.90;99.90
13998;DHT22;7074;51.508;7.018;2023-11-21T04:05:59;10.80;99.90
13998;DHT22;7074;51.508;7.018;2023-11-21T04:08:28;10.90;99.90
13998;DHT22;7074;51.508;7.018;2023-11-21T04:10:55;10.90;99.90
13998;DHT22;7074;51.508;7.018;2023-11-21T04:13:22;10.90;99.90
13998;DHT22;7074;51.508;7.018;2023-11-21T04:15:49;10.90;99.90
13998;DHT22;7074;51.508;7.018;2023-11-21T04:18:17;10.90;99.90
13998;DHT22;7074;51.508;7.018;2023-11-21T04:20:44;10.90;99.90
13998;DHT22;7074;51.508;7.018;2023-11-21T04:23:11;10.90;99.90
13998;DHT22;7074;51.508;7.018;2023-11-21T04:25:40;11.00;99.90
13998;DHT22;7074;51.508;7.018;2023-11-21T04:28:08;11.00;99.90
13998;DHT22;7074;51.508;7.018;2023-11-21T04:30:35;11.00;99.90
13998;DHT22;7074;51.508;7.018;2023-11-21T04:33:02;11.00;99.90
13998;DHT22;7074;51.508;7.018;2023-11-21T04:35:29;10.90;99.90
13998;DHT22;7074;51.508;7.018;2023-11-21T04:37:57;10.90;99.90
13998;DHT22;7074;51.508;7.018;2023-11-21T04:40:24;10.90;99.90
13998;DHT22;7074;51.508;7.018;2023-11-21T04:42:54;10.90;99.90
13998;DHT22;7074;51.508;7.018;2023-11-21T04:45:23;10.90;99.90
13998;DHT22;7074;51.508;7.018;2023-11-21T04:47:50;10.80;99.90
13998;DHT22;7074;51.508;7.018;2023-11-21T04:50:18;10.80;99.90
13998;DHT22;7074;51.508;7.018;2023-11-21T04:52:46;10.80;99.90
13998;DHT22;7074;51.508;7.018;2023-11-21T04:55:13;10.80;99.90
13998;DHT22;7074;51.508;7.018;2023-11-21T04:57:41;10.70;99.90
13998;DHT22;7074;51.508;7.018;2023-11-21T05:00:11;10.80;99.90
13998;DHT22;7074;51.508;7.018;2023-11-21T05:02:39;10.80;99.90
13998;DHT22;7074;51.508;7.018;2023-11-21T05:05:08;10.70;99.90
13998;DHT22;7074;51.508;7.018;2023-11-21T05:07:36;10.70;99.90
13998;DHT22;7074;51.508;7.018;2023-11-21T05:10:05;10.70;99.90
13998;DHT22;7074;51.508;7.018;2023-11-21T05:12:36;10.70;99.90
13998;DHT22;7074;51.508;7.018;2023-11-21T05:15:05;10.60;99.90
13998;DHT22;7074;51.508;7.018;2023-11-21T05:17:37;10.70;99.90
13998;DHT22;7074;51.508;7.018;2023-11-21T05:20:06;10.70;99.90
13998;DHT22;7074;51.508;7.018;2023-11-21T05:22:35;10.70;99.90
13998;DHT22;7074;51.508;7.018;2023-11-21T05:25:03;10.70;99.90
13998;DHT22;7074;51.508;7.018;2023-11-21T05:27:30;10.70;99.90
13998;DHT22;7074;51.508;7.018;2023-11-21T05:29:58;10.70;99.90
13998;DHT22;7074;51.508;7.018;2023-11-21T05:32:25;10.60;99.90
13998;DHT22;7074;51.508;7.018;2023-11-21T05:34:54;10.60;99.90
13998;DHT22;7074;51.508;7.018;2023-11-21T05:37:21;10.60;99.90
13998;DHT22;7074;51.508;7.018;2023-11-21T05:39:49;10.50;99.90
13998;DHT22;7074;51.508;7.018;2023-11-21T05:42:16;10.50;99.90
13998;DHT22;7074;51.508;7.018;2023-11-21T05:44:43;10.50;99.90
13998;DHT22;7074;51.508;7.018;2023-11-21T05:47:11;10.50;99.90
13998;DHT22;7074;51.508;7.018;2023-11-21T05:49:39;10.50;99.90
13998;DHT22;7074;51.508;7.018;2023-11-21T05:52:08;10.50;99.90
13998;DHT22;7074;51.508;7.018;2023-11-21T05:54:36;10.50;99.90
13998;DHT22;7074;51.508;7.018;2023-11-21T05:57:03;10.50;99.90
13998;DHT22;7074;51.508;7.018;2023-11-21T05:59:31;10.50;99.90
13998;DHT22;7074;51.508;7.018;2023-11-21T06:01:58;10.50;99.90
13998;DHT22;7074;51.508;7.018;2023-11-21T06:04:25;10.50;99.90
13998;DHT22;7074;51.508;7.018;2023-11-21T06:06:52;10.60;99.90
13998;DHT22;7074;51.508;7.018;2023-11-21T06:09:21;10.60;99.90
13998;DHT22;7074;51.508;7.018;2023-11-21T06:11:50;10.60;99.90
13998;DHT22;7074;51.508;7.018;2023-11-21T06:14:17;10.60;99.90
13998;DHT22;7074;51.508;7.018;2023-11-21T06:16:44;10.60;99.90
13998;DHT22;7074;51.508;7.018;2023-11-21T06:19:12;10.60;99.90
13998;DHT22;7074;51.508;7.018;2023-11-21T06:21:40;10.50;99.90
13998;DHT22;7074;51.508;7.018;2023-11-21T06:24:08;10.60;99.90
13998;DHT22;7074;51.508;7.018;2023-11-21T06:26:36;10.50;99.90
13998;DHT22;7074;51.508;7.018;2023-11-21T06:29:03;10.60;99.90
13998;DHT22;7074;51.508;7.018;2023-11-21T06:31:31;10.50;99.90
13998;DHT22;7074;51.508;7.018;2023-11-21T06:33:58;10.50;99.90
13998;DHT22;7074;51.508;7.018;2023-11-21T06:36:26;10.40;99.90
13998;DHT22;7074;51.508;7.018;2023-11-21T06:38:53;10.40;99.90
13998;DHT22;7074;51.508;7.018;2023-11-21T06:41:20;10.40;99.90
13998;DHT22;7074;51.508;7.018;2023-11-21T06:43:49;10.50;99.90
13998;DHT22;7074;51.508;7.018;2023-11-21T06:46:16;10.40;99.90
13998;DHT22;7074;51.508;7.018;2023-11-21T06:48:45;10.40;99.90
13998;DHT22;7074;51.508;7.018;2023-11-21T06:51:15;10.50;99.90
13998;DHT22;7074;51.508;7.018;2023-11-21T06:53:42;10.50;99.90
13998;DHT22;7074;51.508;7.018;2023-11-21T06:56:15;10.60;99.90
13998;DHT22;7074;51.508;7.018;2023-11-21T06:58:43;10.50;99.90
13998;DHT22;7074;51.508;7.018;2023-11-21T07:01:13;10.50;99.90
13998;DHT22;7074;51.508;7.018;2023-11-21T07:03:42;10.50;99.90
13998;DHT22;7074;51.508;7.018;2023-11-21T07:06:09;10.50;99.90
13998;DHT22;7074;51.508;7.018;2023-11-21T07:08:37;10.50;99.90
13998;DHT22;7074;51.508;7.018;2023-11-21T07:11:04;10.50;99.90
13998;DHT22;7074;51.508;7.018;2023-11-21T07:13:32;10.50;99.90
13998;DHT22;7074;51.508;7.018;2023-11-21T07:15:59;10.60;99.90
13998;DHT22;7074;51.508;7.018;2023-11-21T07:18:28;10.60;99.90
13998;DHT22;7074;51.508;7.018;2023-11-21T07:20:55;10.70;99.90
13998;DHT22;7074;51.508;7.018;2023-11-21T07:23:24;10.70;99.90
13998;DHT22;7074;51.508;7.018;2023-11-21T07:25:51;10.80;99.90
13998;DHT22;7074;51.508;7.018;2023-11-21T07:28:18;10.80;99.90
13998;DHT22;7074;51.508;7.018;2023-11-21T07:30:46;10.90;99.90
13998;DHT22;7074;51.508;7.018;2023-11-21T07:33:13;10.90;99.90
13998;DHT22;7074;51.508;7.018;2023-11-21T07:35:42;10.80;99.90
13998;DHT22;7074;51.508;7.018;2023-11-21T07:38:09;10.80;99.90
13998;DHT22;7074;51.508;7.018;2023-11-21T07:40:37;10.90;99.90
13998;DHT22;7074;51.508;7.018;2023-11-21T07:43:04;10.90;99.90
13998;DHT22;7074;51.508;7.018;2023-11-21T07:45:31;10.90;99.90
13998;DHT22;7074;51.508;7.018;2023-11-21T07:47:58;10.90;99.90
13998;DHT22;7074;51.508;7.018;2023-11-21T07:50:26;10.90;99.90
13998;DHT22;7074;51.508;7.018;2023-11-21T07:52:55;10.90;99.90
13998;DHT22;7074;51.508;7.018;2023-11-21T07:55:22;11.00;99.90
13998;DHT22;7074;51.508;7.018;2023-11-21T07:57:50;11.00;99.90
13998;DHT22;7074;51.508;7.018;2023-11-21T08:00:19;11.00;99.90
13998;DHT22;7074;51.508;7.018;2023-11-21T08:02:47;11.00;99.90
13998;DHT22;7074;51.508;7.018;2023-11-21T08:05:14;11.10;99.90
13998;DHT22;7074;51.508;7.018;2023-11-21T08:07:42;11.00;99.90
13998;DHT22;7074;51.508;7.018;2023-11-21T08:10:11;11.00;99.90
13998;DHT22;7074;51.508;7.018;2023-11-21T08:12:38;11.10;99.90
13998;DHT22;7074;51.508;7.018;2023-11-21T08:15:06;11.10;99.90
13998;DHT22;7074;51.508;7.018;2023-11-21T08:17:34;11.10;99.90
13998;DHT22;7074;51.508;7.018;2023-11-21T08:20:02;11.10;99.90
13998;DHT22;7074;51.508;7.018;2023-11-21T08:22:29;11.10;99.90
13998;DHT22;7074;51.508;7.018;2023-11-21T08:24:57;11.10;99.90
13998;DHT22;7074;51.508;7.018;2023-11-21T08:27:26;11.00;99.90
13998;DHT22;7074;51.508;7.018;2023-11-21T08:29:53;11.00;99.90
13998;DHT22;7074;51.508;7.018;2023-11-21T08:32:22;11.10;99.90
13998;DHT22;7074;51.508;7.018;2023-11-21T08:34:49;11.10;99.90
13998;DHT22;7074;51.508;7.018;2023-11-21T08:37:17;11.10;99.90
13998;DHT22;7074;51.508;7.018;2023-11-21T08:39:45;11.10;99.90
13998;DHT22;7074;51.508;7.018;2023-11-21T08:42:12;11.20;99.90
13998;DHT22;7074;51.508;7.018;2023-11-21T08:44:41;11.30;99.90
13998;DHT22;7074;51.508;7.018;2023-11-21T08:47:08;11.20;99.90
13998;DHT22;7074;51.508;7.018;2023-11-21T08:49:35;11.20;99.90
13998;DHT22;7074;51.508;7.018;2023-11-21T08:52:04;11.30;99.90
13998;DHT22;7074;51.508;7.018;2023-11-21T08:54:32;11.20;99.90
13998;DHT22;7074;51.508;7.018;2023-11-21T08:57:00;11.20;99.90
13998;DHT22;7074;51.508;7.018;2023-11-21T08:59:27;11.20;99.90
13998;DHT22;7074;51.508;7.018;2023-11-21T09:01:56;11.30;99.90
13998;DHT22;7074;51.508;7.018;2023-11-21T09:04:24;11.30;99.90
13998;DHT22;7074;51.508;7.018;2023-11-21T09:06:51;11.40;99.90
13998;DHT22;7074;51.508;7.018;2023-11-21T09:09:18;11.40;99.90
13998;DHT22;7074;51.508;7.018;2023-11-21T09:11:46;11.40;99.90
13998;DHT22;7074;51.508;7.018;2023-11-21T09:14:15;11.40;99.90
13998;DHT22;7074;51.508;7.018;2023-11-21T09:16:43;11.50;99.90
13998;DHT22;7074;51.508;7.018;2023-11-21T09:19:13;11.40;99.90
13998;DHT22;7074;51.508;7.018;2023-11-21T09:21:41;11.40;99.90
13998;DHT22;7074;51.508;7.018;2023-11-21T09:24:09;11.50;99.90
13998;DHT22;7074;51.508;7.018;2023-11-21T09:26:36;11.50;99.90
13998;DHT22;7074;51.508;7.018;2023-11-21T09:29:03;11.50;99.90
13998;DHT22;7074;51.508;7.018;2023-11-21T09:31:31;11.50;99.90
13998;DHT22;7074;51.508;7.018;2023-11-21T09:33:59;11.60;99.90
13998;DHT22;7074;51.508;7.018;2023-11-21T09:36:29;11.60;99.90
13998;DHT22;7074;51.508;7.018;2023-11-21T09:38:56;11.60;99.90
13998;DHT22;7074;51.508;7.018;2023-11-21T09:41:30;11.50;99.90
13998;DHT22;7074;51.508;7.018;2023-11-21T09:44:03;11.40;99.90
13998;DHT22;7074;51.508;7.018;2023-11-21T09:46:33;11.50;99.90
13998;DHT22;7074;51.508;7.018;2023-11-21T09:49:07;11.50;99.90
13998;DHT22;7074;51.508;7.018;2023-11-21T09:51:42;11.50;99.90
13998;DHT22;7074;51.508;7.018;2023-11-21T09:54:11;11.50;99.90
13998;DHT22;7074;51.508;7.018;2023-11-21T09:56:38;11.50;99.90
13998;DHT22;7074;51.508;7.018;2023-11-21T09:59:06;11.40;99.90
13998;DHT22;7074;51.508;7.018;2023-11-21T10:01:36;11.40;99.90
13998;DHT22;7074;51.508;7.018;2023-11-21T10:04:05;11.60;99.90
13998;DHT22;7074;51.508;7.018;2023-11-21T10:06:39;11.60;99.90
13998;DHT22;7074;51.508;7.018;2023-11-21T10:09:09;11.80;99.90
13998;DHT22;7074;51.508;7.018;2023-11-21T10:11:40;11.80;99.90
13998;DHT22;7074;51.508;7.018;2023-11-21T10:14:08;11.90;99.90
13998;DHT22;7074;51.508;7.018;2023-11-21T10:16:38;12.00;99.90
13998;DHT22;7074;51.508;7.018;2023-11-21T10:19:06;12.10;99.90
13998;DHT22;7074;51.508;7.018;2023-11-21T10:21:36;12.00;99.90
13998;DHT22;7074;51.508;7.018;2023-11-21T10:24:06;11.90;99.90
13998;DHT22;7074;51.508;7.018;2023-11-21T10:26:34;11.90;99.90
13998;DHT22;7074;51.508;7.018;2023-11-21T10:29:03;12.00;99.90
13998;DHT22;7074;51.508;7.018;2023-11-21T10:31:30;12.00;99.90
13998;DHT22;7074;51.508;7.018;2023-11-21T10:34:14;12.10;99.90
13998;DHT22;7074;51.508;7.018;2023-11-21T10:36:41;12.10;99.90
13998;DHT22;7074;51.508;7.018;2023-11-21T10:39:09;12.20;99.90
13998;DHT22;7074;51.508;7.018;2023-11-21T10:41:44;12.00;99.90
13998;DHT22;7074;51.508;7.018;2023-11-21T10:44:14;11.90;99.90
13998;DHT22;7074;51.508;7.018;2023-11-21T10:46:46;11.90;99.90
13998;DHT22;7074;51.508;7.018;2023-11-21T10:49:17;11.80;99.90
13998;DHT22;7074;51.508;7.018;2023-11-21T10:51:45;11.70;99.90
13998;DHT22;7074;51.508;7.018;2023-11-21T10:54:19;11.80;99.90
13998;DHT22;7074;51.508;7.018;2023-11-21T10:56:48;11.90;99.90
13998;DHT22;7074;51.508;7.018;2023-11-21T10:59:17;11.80;99.90
13998;DHT22;7074;51.508;7.018;2023-11-21T11:01:47;11.60;99.90
13998;DHT22;7074;51.508;7.018;2023-11-21T11:04:18;11.70;99.90
13998;DHT22;7074;51.508;7.018;2023-11-21T11:06:49;11.80;99.90
13998;DHT22;7074;51.508;7.018;2023-11-21T11:09:18;11.80;99.90
13998;DHT22;7074;51.508;7.018;2023-11-21T11:11:46;11.90;99.90
13998;DHT22;7074;51.508;7.018;2023-11-21T11:14:14;11.80;99.90
13998;DHT22;7074;51.508;7.018;2023-11-21T11:16:42;12.00;99.90
13998;DHT22;7074;51.508;7.018;2023-11-21T11:19:11;12.10;99.90
13998;DHT22;7074;51.508;7.018;2023-11-21T11:21:46;12.20;99.90
13998;DHT22;7074;51.508;7.018;2023-11-21T11:27:37;12.00;99.90
13998;DHT22;7074;51.508;7.018;2023-11-21T11:30:20;12.10;99.90
13998;DHT22;7074;51.508;7.018;2023-11-21T11:33:03;12.20;99.90
13998;DHT22;7074;51.508;7.018;2023-11-21T11:38:22;12.30;99.90
13998;DHT22;7074;51.508;7.018;2023-11-21T11:40:53;12.30;99.90
13998;DHT22;7074;51.508;7.018;2023-11-21T11:43:25;12.30;99.90
13998;DHT22;7074;51.508;7.018;2023-11-21T11:45:55;12.30;99.90
13998;DHT22;7074;51.508;7.018;2023-11-21T11:48:25;12.20;99.90
13998;DHT22;7074;51.508;7.018;2023-11-21T11:51:02;12.00;99.90
13998;DHT22;7074;51.508;7.018;2023-11-21T11:53:36;12.00;99.90
13998;DHT22;7074;51.508;7.018;2023-11-21T11:56:27;11.90;99.90
13998;DHT22;7074;51.508;7.018;2023-11-21T11:58:57;12.00;99.90
13998;DHT22;7074;51.508;7.018;2023-11-21T12:01:25;12.10;99.90
13998;DHT22;7074;51.508;7.018;2023-11-21T12:04:24;12.20;99.90
13998;DHT22;7074;51.508;7.018;2023-11-21T12:06:59;11.90;99.90
13998;DHT22;7074;51.508;7.018;2023-11-21T12:09:29;11.90;99.90
13998;DHT22;7074;51.508;7.018;2023-11-21T12:11:59;12.00;99.90
13998;DHT22;7074;51.508;7.018;2023-11-21T12:14:27;12.00;99.90
13998;DHT22;7074;51.508;7.018;2023-11-21T12:16:54;12.00;99.90
13998;DHT22;7074;51.508;7.018;2023-11-21T12:19:22;11.90;99.90
13998;DHT22;7074;51.508;7.018;2023-11-21T12:21:49;12.00;99.90
13998;DHT22;7074;51.508;7.018;2023-11-21T12:24:18;12.10;99.90
13998;DHT22;7074;51.508;7.018;2023-11-21T12:26:45;12.10;99.90
13998;DHT22;7074;51.508;7.018;2023-11-21T12:29:14;12.10;99.90
13998;DHT22;7074;51.508;7.018;2023-11-21T12:31:42;12.20;99.90
13998;DHT22;7074;51.508;7.018;2023-11-21T12:34:10;12.10;99.90
13998;DHT22;7074;51.508;7.018;2023-11-21T12:36:39;12.10;99.90
13998;DHT22;7074;51.508;7.018;2023-11-21T12:39:10;12.00;99.90
13998;DHT22;7074;51.508;7.018;2023-11-21T12:41:37;12.00;99.90
13998;DHT22;7074;51.508;7.018;2023-11-21T12:44:11;12.10;99.90
13998;DHT22;7074;51.508;7.018;2023-11-21T12:46:43;12.00;99.90
13998;DHT22;7074;51.508;7.018;2023-11-21T12:49:12;12.10;99.90
13998;DHT22;7074;51.508;7.018;2023-11-21T12:51:44;12.10;99.90
13998;DHT22;7074;51.508;7.018;2023-11-21T12:54:12;12.10;99.90
13998;DHT22;7074;51.508;7.018;2023-11-21T12:56:39;12.00;99.90
13998;DHT22;7074;51.508;7.018;2023-11-21T12:59:07;11.80;99.90
13998;DHT22;7074;51.508;7.018;2023-11-21T13:01:43;11.80;99.90
13998;DHT22;7074;51.508;7.018;2023-11-21T13:04:11;11.40;99.90
13998;DHT22;7074;51.508;7.018;2023-11-21T13:06:38;11.40;99.90
13998;DHT22;7074;51.508;7.018;2023-11-21T13:09:07;11.30;99.90
13998;DHT22;7074;51.508;7.018;2023-11-21T13:11:36;11.30;99.90
13998;DHT22;7074;51.508;7.018;2023-11-21T13:14:06;11.20;99.90
13998;DHT22;7074;51.508;7.018;2023-11-21T13:16:37;11.40;99.90
13998;DHT22;7074;51.508;7.018;2023-11-21T13:19:06;11.60;99.90
13998;DHT22;7074;51.508;7.018;2023-11-21T13:21:34;11.70;99.90
13998;DHT22;7074;51.508;7.018;2023-11-21T13:24:02;11.60;99.90
13998;DHT22;7074;51.508;7.018;2023-11-21T13:26:30;11.70;99.90
13998;DHT22;7074;51.508;7.018;2023-11-21T13:28:58;11.80;99.90
13998;DHT22;7074;51.508;7.018;2023-11-21T13:31:25;11.80;99.90
13998;DHT22;7074;51.508;7.018;2023-11-21T13:33:57;11.70;99.90
13998;DHT22;7074;51.508;7.018;2023-11-21T13:36:32;11.70;99.90
13998;DHT22;7074;51.508;7.018;2023-11-21T13:39:01;11.80;99.90
13998;DHT22;7074;51.508;7.018;2023-11-21T13:41:33;11.70;99.90
13998;DHT22;7074;51.508;7.018;2023-11-21T13:44:04;11.70;99.90
13998;DHT22;7074;51.508;7.018;2023-11-21T13:46:41;11.80;99.90
13998;DHT22;7074;51.508;7.018;2023-11-21T13:49:09;11.80;99.90
13998;DHT22;7074;51.508;7.018;2023-11-21T13:51:41;11.90;99.90
13998;DHT22;7074;51.508;7.018;2023-11-21T13:54:10;12.00;99.90
13998;DHT22;7074;51.508;7.018;2023-11-21T13:56:38;12.00;99.90
13998;DHT22;7074;51.508;7.018;2023-11-21T13:59:06;12.10;99.90
13998;DHT22;7074;51.508;7.018;2023-11-21T14:01:44;11.90;99.90
13998;DHT22;7074;51.508;7.018;2023-11-21T14:04:27;12.00;99.90
13998;DHT22;7074;51.508;7.018;2023-11-21T14:07:22;12.00;99.90
13998;DHT22;7074;51.508;7.018;2023-11-21T14:09:58;11.90;99.90
13998;DHT22;7074;51.508;7.018;2023-11-21T14:12:26;11.90;99.90
13998;DHT22;7074;51.508;7.018;2023-11-21T14:14:54;11.90;99.90
13998;DHT22;7074;51.508;7.018;2023-11-21T14:17:21;11.90;99.90
13998;DHT22;7074;51.508;7.018;2023-11-21T14:19:50;11.70;99.90
13998;DHT22;7074;51.508;7.018;2023-11-21T14:22:17;11.70;99.90
13998;DHT22;7074;51.508;7.018;2023-11-21T14:24:46;11.70;99.90
13998;DHT22;7074;51.508;7.018;2023-11-21T14:27:16;11.70;99.90
13998;DHT22;7074;51.508;7.018;2023-11-21T14:29:43;11.70;99.90
13998;DHT22;7074;51.508;7.018;2023-11-21T14:32:11;11.60;99.90
13998;DHT22;7074;51.508;7.018;2023-11-21T14:34:39;11.60;99.90
13998;DHT22;7074;51.508;7.018;2023-11-21T14:37:08;11.60;99.90
13998;DHT22;7074;51.508;7.018;2023-11-21T14:39:40;11.70;99.90
13998;DHT22;7074;51.508;7.018;2023-11-21T14:42:12;11.60;99.90
13998;DHT22;7074;51.508;7.018;2023-11-21T14:44:40;11.70;99.90
13998;DHT22;7074;51.508;7.018;2023-11-21T14:47:08;11.70;99.90
13998;DHT22;7074;51.508;7.018;2023-11-21T14:49:41;11.70;99.90
13998;DHT22;7074;51.508;7.018;2023-11-21T14:52:18;11.70;99.90
13998;DHT22;7074;51.508;7.018;2023-11-21T14:54:58;11.70;99.90
13998;DHT22;7074;51.508;7.018;2023-11-21T14:57:47;11.70;99.90
13998;DHT22;7074;51.508;7.018;2023-11-21T15:00:16;11.60;99.90
13998;DHT22;7074;51.508;7.018;2023-11-21T15:03:12;11.60;99.90
13998;DHT22;7074;51.508;7.018;2023-11-21T15:05:59;11.60;99.90
13998;DHT22;7074;51.508;7.018;2023-11-21T15:08:44;11.50;99.90
13998;DHT22;7074;51.508;7.018;2023-11-21T15:11:11;11.50;99.90
13998;DHT22;7074;51.508;7.018;2023-11-21T15:13:40;11.40;99.90
13998;DHT22;7074;51.508;7.018;2023-11-21T15:16:08;11.40;99.90
13998;DHT22;7074;51.508;7.018;2023-11-21T15:18:39;11.50;99.90
13998;DHT22;7074;51.508;7.018;2023-11-21T15:21:06;11.50;99.90
13998;DHT22;7074;51.508;7.018;2023-11-21T15:23:38;11.40;99.90
13998;DHT22;7074;51.508;7.018;2023-11-21T15:26:07;11.40;99.90
13998;DHT22;7074;51.508;7.018;2023-11-21T15:28:35;11.40;99.90
13998;DHT22;7074;51.508;7.018;2023-11-21T15:31:02;11.30;99.90
13998;DHT22;7074;51.508;7.018;2023-11-21T15:33:30;11.30;99.90
13998;DHT22;7074;51.508;7.018;2023-11-21T15:35:58;11.20;99.90
13998;DHT22;7074;51.508;7.018;2023-11-21T15:38:26;11.10;99.90
13998;DHT22;7074;51.508;7.018;2023-11-21T15:40:54;11.10;99.90
13998;DHT22;7074;51.508;7.018;2023-11-21T15:43:24;11.00;99.90
13998;DHT22;7074;51.508;7.018;2023-11-21T15:45:53;11.00;99.90
13998;DHT22;7074;51.508;7.018;2023-11-21T15:48:21;11.10;99.90
13998;DHT22;7074;51.508;7.018;2023-11-21T15:50:48;10.90;99.90
13998;DHT22;7074;51.508;7.018;2023-11-21T15:53:19;11.00;99.90
13998;DHT22;7074;51.508;7.018;2023-11-21T15:55:46;11.00;99.90
13998;DHT22;7074;51.508;7.018;2023-11-21T15:58:13;11.10;99.90
13998;DHT22;7074;51.508;7.018;2023-11-21T16:00:40;11.00;99.90
13998;DHT22;7074;51.508;7.018;2023-11-21T16:03:08;10.90;99.90